createdAt,value
2022-09-16T15:57:03.454Z,3352
2022-09-16T15:58:08.285Z,3704
2022-09-16T15:59:11.420Z,3680
2022-09-16T16:00:14.294Z,3812
2022-09-16T16:01:17.458Z,4136
2022-09-16T16:02:21.374Z,4004
2022-09-16T16:03:24.705Z,3964
2022-09-16T16:04:27.507Z,3820
2022-09-16T16:05:30.679Z,3628
2022-09-16T16:06:33.400Z,3492
2022-09-16T16:07:35.925Z,3112
2022-09-16T16:08:38.631Z,2864
2022-09-16T16:09:41.562Z,2692
2022-09-16T16:10:44.706Z,2368
2022-09-16T16:11:48.153Z,2308
2022-09-16T16:12:51.075Z,2368
2022-09-16T16:13:59.798Z,1932
2022-09-16T16:15:05.620Z,1792
2022-09-16T16:16:09.659Z,2444
2022-09-16T16:17:14.411Z,2340
2022-09-16T16:18:17.961Z,1896
2022-09-16T16:19:21.033Z,1672
2022-09-16T16:20:24.500Z,1544
2022-09-16T16:21:27.649Z,1448
2022-09-16T16:22:31.383Z,1264
2022-09-16T16:23:35.823Z,1372
2022-09-16T16:24:38.570Z,1376
2022-09-16T16:25:41.762Z,1208
2022-09-16T16:26:44.555Z,1332
2022-09-16T16:27:47.277Z,1644
2022-09-16T16:28:50.482Z,1532
2022-09-16T16:29:55.399Z,1400
2022-09-16T16:30:58.655Z,1340
2022-09-16T16:32:02.112Z,992
2022-09-16T16:33:04.881Z,828
2022-09-16T16:34:08.363Z,848
2022-09-16T16:35:11.345Z,964
2022-09-16T16:36:14.479Z,908
2022-09-16T16:37:34.096Z,1032
2022-09-16T16:38:51.005Z,1080
2022-09-16T16:39:54.455Z,1028
2022-09-16T16:40:58.037Z,896
2022-09-16T16:42:00.989Z,820
2022-09-16T16:43:04.347Z,732
2022-09-16T16:44:08.080Z,820
2022-09-16T16:45:12.885Z,820
2022-09-16T16:46:15.878Z,796
2022-09-16T16:47:19.245Z,800
2022-09-16T16:48:22.420Z,640
2022-09-16T16:49:25.586Z,484
2022-09-16T16:50:28.678Z,440
2022-09-16T16:51:32.921Z,360
2022-09-16T16:52:35.918Z,320
2022-09-16T16:53:39.078Z,272
2022-09-16T16:54:41.606Z,224
2022-09-16T16:55:44.585Z,224
2022-09-16T16:56:47.303Z,260
2022-09-16T16:57:50.478Z,240
2022-09-16T16:58:53.579Z,260
2022-09-16T16:59:57.217Z,244
2022-09-16T17:01:02.181Z,224
2022-09-16T17:02:04.873Z,188
2022-09-16T17:03:08.055Z,164
2022-09-16T17:04:12.150Z,180
2022-09-16T17:05:15.675Z,180
2022-09-16T17:06:19.483Z,184
2022-09-16T17:07:26.878Z,196
2022-09-16T17:08:32.366Z,220
2022-09-16T17:09:36.559Z,228
2022-09-16T17:10:39.906Z,208
2022-09-16T17:11:43.055Z,224
2022-09-16T17:12:46.055Z,200
2022-09-16T17:13:49.204Z,172
2022-09-16T17:14:52.637Z,128
2022-09-16T17:15:55.651Z,120
2022-09-16T17:17:00.998Z,104
2022-09-16T17:18:04.361Z,100
2022-09-16T17:19:06.512Z,96
2022-09-16T17:20:09.935Z,80
2022-09-16T17:21:13.345Z,80
2022-09-16T17:22:16.071Z,68
2022-09-16T17:23:18.757Z,68
2022-09-16T17:24:20.992Z,60
2022-09-16T17:25:24.062Z,52
2022-09-16T17:26:27.043Z,48
2022-09-16T17:27:30.210Z,48
2022-09-16T17:28:33.319Z,48
2022-09-16T17:29:36.104Z,48
2022-09-16T17:30:39.346Z,48
2022-09-16T17:31:42.706Z,48
2022-09-16T17:32:47.512Z,36
2022-09-16T17:33:49.926Z,36
2022-09-16T17:34:52.829Z,32
2022-09-16T17:35:55.914Z,28
2022-09-16T17:36:59.361Z,20
2022-09-16T17:38:06.260Z,16
2022-09-16T17:39:09.875Z,12
2022-09-16T17:40:12.802Z,12
2022-09-16T17:41:15.321Z,12
2022-09-16T17:42:18.383Z,12
2022-09-16T17:43:21.179Z,12
2022-09-16T17:44:24.330Z,8
2022-09-16T17:45:27.516Z,4
2022-09-16T17:46:30.787Z,8
2022-09-16T17:47:35.057Z,4
2022-09-16T17:48:39.949Z,4
2022-09-16T17:49:42.179Z,8
2022-09-16T17:50:44.854Z,4
2022-09-16T17:51:47.844Z,4
2022-09-16T17:52:50.352Z,0
2022-09-16T17:53:53.429Z,4
2022-09-16T17:54:56.497Z,0
2022-09-16T17:55:59.015Z,0
2022-09-16T17:57:02.191Z,0
2022-09-16T17:58:04.773Z,0
2022-09-16T17:59:07.788Z,0
2022-09-16T18:00:10.499Z,0
2022-09-16T18:01:13.660Z,0
2022-09-16T18:02:16.992Z,0
2022-09-16T18:03:19.848Z,0
2022-09-16T18:04:25.258Z,0
2022-09-16T18:05:30.183Z,0
2022-09-16T18:06:33.749Z,0
2022-09-16T18:07:36.527Z,0
2022-09-16T18:08:39.321Z,0
2022-09-16T18:09:42.223Z,0
2022-09-16T18:10:45.275Z,0
2022-09-16T18:11:48.973Z,0
2022-09-16T18:12:52.092Z,0
2022-09-16T18:13:55.162Z,0
2022-09-16T18:14:58.535Z,0
2022-09-16T18:16:02.234Z,0
2022-09-16T18:17:04.847Z,0
2022-09-16T18:18:08.650Z,0
2022-09-16T18:19:11.857Z,0
2022-09-16T18:20:16.649Z,0
2022-09-16T18:21:19.996Z,0
2022-09-16T18:22:22.885Z,0
2022-09-16T18:23:25.764Z,0
2022-09-16T18:24:29.179Z,0
2022-09-16T18:25:32.396Z,0
2022-09-16T18:26:35.766Z,0
2022-09-16T18:27:43.372Z,0
2022-09-16T18:29:08.440Z,0
2022-09-16T18:30:14.840Z,0
2022-09-16T18:31:18.286Z,0
2022-09-16T18:32:22.087Z,0
2022-09-16T18:33:24.600Z,0
2022-09-16T18:34:32.769Z,0
2022-09-16T18:35:38.213Z,0
2022-09-16T18:36:41.114Z,0
2022-09-16T18:37:43.857Z,0
2022-09-16T18:38:46.726Z,0
2022-09-16T18:39:49.900Z,0
2022-09-16T18:40:53.252Z,0
2022-09-16T18:41:56.981Z,0
2022-09-16T18:42:59.287Z,0
2022-09-16T18:44:02.746Z,0
2022-09-16T18:45:05.580Z,0
2022-09-16T18:46:08.206Z,0
2022-09-16T18:47:10.902Z,0
2022-09-16T18:48:13.774Z,0
2022-09-16T18:49:16.950Z,0
2022-09-16T18:50:20.232Z,0
2022-09-16T18:51:25.039Z,0
2022-09-16T18:52:28.415Z,0
2022-09-16T18:53:31.694Z,0
2022-09-16T18:54:34.871Z,0
2022-09-16T18:55:38.107Z,0
2022-09-16T18:56:40.747Z,0
2022-09-16T18:57:44.116Z,0
2022-09-16T18:58:58.478Z,0
2022-09-16T19:00:27.579Z,0
2022-09-16T19:01:30.685Z,0
2022-09-16T19:02:34.296Z,0
2022-09-16T19:03:37.414Z,0
2022-09-16T19:04:40.512Z,0
2022-09-16T19:05:44.005Z,0
2022-09-16T19:06:48.800Z,0
2022-09-16T19:07:51.345Z,0
2022-09-16T19:08:54.602Z,0
2022-09-16T19:09:57.829Z,0
2022-09-16T19:11:01.047Z,0
2022-09-16T19:12:03.854Z,0
2022-09-16T19:13:07.035Z,0
2022-09-16T19:14:09.358Z,0
2022-09-16T19:15:11.235Z,0
2022-09-16T19:16:13.677Z,0
2022-09-16T19:17:16.617Z,0
2022-09-16T19:18:20.117Z,0
2022-09-16T19:19:22.851Z,0
2022-09-16T19:20:26.272Z,0
2022-09-16T19:21:29.180Z,0
2022-09-16T19:22:34.007Z,0
2022-09-16T19:23:37.659Z,0
2022-09-16T19:24:40.911Z,0
2022-09-16T19:25:43.459Z,0
2022-09-16T19:26:46.173Z,0
2022-09-16T19:27:49.342Z,0
2022-09-16T19:28:51.852Z,0
2022-09-16T19:29:54.994Z,0
2022-09-16T19:30:58.508Z,0
2022-09-16T19:32:01.137Z,0
2022-09-16T19:33:04.238Z,0
2022-09-16T19:34:06.948Z,0
2022-09-16T19:35:10.324Z,0
2022-09-16T19:36:13.453Z,0
2022-09-16T19:37:16.456Z,0
2022-09-16T19:38:21.334Z,0
2022-09-16T19:39:23.951Z,0
2022-09-16T19:40:27.319Z,0
2022-09-16T19:41:31.337Z,0
2022-09-16T19:42:34.484Z,0
2022-09-16T19:43:37.588Z,0
2022-09-16T19:44:40.952Z,0
2022-09-16T19:45:44.043Z,0
2022-09-16T19:46:47.661Z,0
2022-09-16T19:47:51.357Z,0
2022-09-16T19:48:54.790Z,0
2022-09-16T19:49:57.948Z,0
2022-09-16T19:51:01.381Z,0
2022-09-16T19:52:04.524Z,0
2022-09-16T19:53:07.589Z,0
2022-09-16T19:54:12.422Z,0
2022-09-16T19:55:15.311Z,0
2022-09-16T19:56:18.386Z,0
2022-09-16T19:57:21.758Z,0
2022-09-16T19:58:25.132Z,0
2022-09-16T19:59:28.475Z,0
2022-09-16T20:00:46.783Z,0
2022-09-16T20:02:00.258Z,0
2022-09-16T20:03:03.430Z,0
2022-09-16T20:04:06.633Z,0
2022-09-16T20:05:09.316Z,0
2022-09-16T20:06:13.053Z,0
2022-09-16T20:07:15.765Z,0
2022-09-16T20:08:19.580Z,0
2022-09-16T20:09:24.386Z,0
2022-09-16T20:10:27.179Z,0
2022-09-16T20:11:30.529Z,0
2022-09-16T20:12:34.075Z,0
2022-09-16T20:13:37.504Z,0
2022-09-16T20:14:40.877Z,0
2022-09-16T20:15:44.318Z,0
2022-09-16T20:16:46.968Z,0
2022-09-16T20:17:51.297Z,0
2022-09-16T20:18:54.418Z,0
2022-09-16T20:19:57.498Z,0
2022-09-16T20:21:00.211Z,0
2022-09-16T20:22:04.154Z,0
2022-09-16T20:23:07.462Z,0
2022-09-16T20:24:11.462Z,0
2022-09-16T20:25:22.850Z,0
2022-09-16T20:26:26.252Z,0
2022-09-16T20:27:29.701Z,0
2022-09-16T20:28:32.319Z,0
2022-09-16T20:29:34.853Z,0
2022-09-16T20:30:37.726Z,0
2022-09-16T20:31:40.734Z,0
2022-09-16T20:32:44.059Z,0
2022-09-16T20:33:47.228Z,0
2022-09-16T20:34:50.293Z,0
2022-09-16T20:35:53.477Z,0
2022-09-16T20:36:56.267Z,0
2022-09-16T20:37:59.259Z,0
2022-09-16T20:39:02.150Z,0
2022-09-16T20:40:05.330Z,0
2022-09-16T20:41:10.436Z,0
2022-09-16T20:42:14.086Z,0
2022-09-16T20:43:16.968Z,0
2022-09-16T20:44:20.038Z,0
2022-09-16T20:45:23.142Z,0
2022-09-16T20:46:27.031Z,0
2022-09-16T20:47:29.622Z,0
2022-09-16T20:48:32.213Z,0
2022-09-16T20:49:35.635Z,0
2022-09-16T20:50:39.140Z,0
2022-09-16T20:51:42.313Z,0
2022-09-16T20:52:45.758Z,0
2022-09-16T20:53:48.538Z,0
2022-09-16T20:54:51.563Z,0
2022-09-16T20:55:54.480Z,0
2022-09-16T20:56:59.281Z,0
2022-09-16T20:58:02.154Z,0
2022-09-16T20:59:04.403Z,0
2022-09-16T21:00:07.422Z,0
2022-09-16T21:01:11.114Z,0
2022-09-16T21:02:14.811Z,0
2022-09-16T21:03:18.432Z,0
2022-09-16T21:04:20.602Z,0
2022-09-16T21:05:23.944Z,0
2022-09-16T21:06:27.056Z,0
2022-09-16T21:07:30.332Z,0
2022-09-16T21:08:34.254Z,0
2022-09-16T21:09:37.688Z,0
2022-09-16T21:10:40.835Z,0
2022-09-16T21:11:43.860Z,0
2022-09-16T21:12:49.183Z,0
2022-09-16T21:13:51.698Z,0
2022-09-16T21:14:54.766Z,0
2022-09-16T21:15:57.553Z,0
2022-09-16T21:17:01.134Z,0
2022-09-16T21:18:03.757Z,0
2022-09-16T21:19:06.200Z,0
2022-09-16T21:20:08.784Z,0
2022-09-16T21:21:11.569Z,0
2022-09-16T21:22:15.572Z,0
2022-09-16T21:23:18.627Z,0
2022-09-16T21:24:21.820Z,0
2022-09-16T21:25:24.773Z,0
2022-09-16T21:26:28.116Z,0
2022-09-16T21:27:31.609Z,0
2022-09-16T21:28:36.470Z,0
2022-09-16T21:29:39.352Z,0
2022-09-16T21:30:42.515Z,0
2022-09-16T21:31:45.456Z,0
2022-09-16T21:32:48.826Z,0
2022-09-16T21:33:51.904Z,0
2022-09-16T21:34:54.782Z,0
2022-09-16T21:35:57.579Z,0
2022-09-16T21:37:00.180Z,0
2022-09-16T21:38:03.423Z,0
2022-09-16T21:39:06.211Z,0
2022-09-16T21:40:10.311Z,0
2022-09-16T21:41:13.870Z,0
2022-09-16T21:42:17.034Z,0
2022-09-16T21:43:20.334Z,0
2022-09-16T21:44:40.413Z,0
2022-09-16T21:45:43.935Z,0
2022-09-16T21:46:47.351Z,0
2022-09-16T21:47:50.714Z,0
2022-09-16T21:48:53.510Z,0
2022-09-16T21:49:57.306Z,0
2022-09-16T21:51:01.511Z,0
2022-09-16T21:52:04.528Z,0
2022-09-16T21:53:07.914Z,0
2022-09-16T21:54:10.498Z,0
2022-09-16T21:55:17.673Z,0
2022-09-16T21:56:20.115Z,0
2022-09-16T21:57:23.250Z,0
2022-09-16T21:58:26.881Z,0
2022-09-16T21:59:30.876Z,0
2022-09-16T22:00:35.358Z,0
2022-09-16T22:01:38.254Z,0
2022-09-16T22:02:41.901Z,0
2022-09-16T22:03:45.438Z,0
2022-09-16T22:04:48.219Z,0
2022-09-16T22:05:52.047Z,0
2022-09-16T22:06:54.656Z,0
2022-09-16T22:07:57.478Z,0
2022-09-16T22:09:00.492Z,0
2022-09-16T22:10:04.209Z,0
2022-09-16T22:11:08.001Z,0
2022-09-16T22:12:11.825Z,0
2022-09-16T22:13:14.415Z,0
2022-09-16T22:14:17.337Z,0
2022-09-16T22:15:20.812Z,0
2022-09-16T22:16:25.644Z,0
2022-09-16T22:17:30.027Z,0
2022-09-16T22:18:33.440Z,0
2022-09-16T22:19:36.623Z,0
2022-09-16T22:20:40.390Z,0
2022-09-16T22:21:43.903Z,0
2022-09-16T22:22:46.992Z,0
2022-09-16T22:23:49.230Z,0
2022-09-16T22:24:51.780Z,0
2022-09-16T22:25:54.783Z,0
2022-09-16T22:26:57.972Z,0
2022-09-16T22:28:01.086Z,0
2022-09-16T22:29:04.528Z,0
2022-09-16T22:30:08.117Z,0
2022-09-16T22:31:11.502Z,0
2022-09-16T22:32:16.416Z,0
2022-09-16T22:33:19.868Z,0
2022-09-16T22:34:23.091Z,0
2022-09-16T22:35:25.609Z,0
2022-09-16T22:36:28.857Z,0
2022-09-16T22:37:32.132Z,0
2022-09-16T22:38:36.205Z,0
2022-09-16T22:39:39.462Z,0
2022-09-16T22:40:42.167Z,0
2022-09-16T22:41:45.126Z,0
2022-09-16T22:42:49.367Z,0
2022-09-16T22:43:52.541Z,0
2022-09-16T22:44:55.388Z,0
2022-09-16T22:45:58.734Z,0
2022-09-16T22:47:02.105Z,0
2022-09-16T22:48:06.955Z,0
2022-09-16T22:49:09.377Z,0
2022-09-16T22:50:12.654Z,0
2022-09-16T22:51:16.141Z,0
2022-09-16T22:52:18.623Z,0
2022-09-16T22:53:21.669Z,0
2022-09-16T22:54:25.094Z,0
2022-09-16T22:55:28.432Z,0
2022-09-16T22:56:31.338Z,0
2022-09-16T22:57:35.006Z,0
2022-09-16T22:58:37.798Z,0
2022-09-16T22:59:41.145Z,0
2022-09-16T23:00:43.854Z,0
2022-09-16T23:01:48.440Z,0
2022-09-16T23:02:52.399Z,0
2022-09-16T23:03:56.750Z,0
2022-09-16T23:05:01.372Z,0
2022-09-16T23:06:04.290Z,0
2022-09-16T23:07:07.098Z,0
2022-09-16T23:08:09.734Z,0
2022-09-16T23:09:12.622Z,0
2022-09-16T23:10:15.951Z,0
2022-09-16T23:11:19.392Z,0
2022-09-16T23:12:22.285Z,0
2022-09-16T23:13:26.174Z,0
2022-09-16T23:14:29.543Z,0
2022-09-16T23:15:33.197Z,0
2022-09-16T23:16:36.740Z,0
2022-09-16T23:17:39.806Z,0
2022-09-16T23:18:42.708Z,0
2022-09-16T23:19:47.147Z,0
2022-09-16T23:20:49.788Z,0
2022-09-16T23:21:52.618Z,0
2022-09-16T23:22:55.655Z,0
2022-09-16T23:23:58.935Z,0
2022-09-16T23:25:01.728Z,0
2022-09-16T23:26:04.680Z,0
2022-09-16T23:27:07.658Z,0
2022-09-16T23:28:10.106Z,0
2022-09-16T23:29:12.895Z,0
2022-09-16T23:30:15.703Z,0
2022-09-16T23:31:19.034Z,0
2022-09-16T23:32:22.558Z,0
2022-09-16T23:33:25.544Z,0
2022-09-16T23:34:28.586Z,0
2022-09-16T23:35:33.184Z,0
2022-09-16T23:36:37.309Z,0
2022-09-16T23:37:40.023Z,0
2022-09-16T23:38:43.477Z,0
2022-09-16T23:39:46.182Z,0
2022-09-16T23:40:49.433Z,0
2022-09-16T23:41:52.136Z,0
2022-09-16T23:42:54.293Z,0
2022-09-16T23:43:57.479Z,0
2022-09-16T23:45:00.351Z,0
2022-09-16T23:46:02.869Z,0
2022-09-16T23:47:06.258Z,0
2022-09-16T23:48:08.762Z,0
2022-09-16T23:49:11.439Z,0
2022-09-16T23:50:13.852Z,0
2022-09-16T23:51:17.973Z,0
2022-09-16T23:52:20.980Z,0
2022-09-16T23:53:24.126Z,0
2022-09-16T23:54:26.722Z,0
2022-09-16T23:55:30.217Z,0
2022-09-16T23:56:33.494Z,0
2022-09-16T23:57:35.656Z,0
2022-09-16T23:58:39.019Z,0
2022-09-16T23:59:41.746Z,0
